createdAt,value
2022-08-04T00:01:47.594Z,23.10
2022-08-04T00:04:58.978Z,23.07
2022-08-04T00:08:12.354Z,23.06
2022-08-04T00:11:20.959Z,23.04
2022-08-04T00:14:26.122Z,23.03
2022-08-04T00:17:37.614Z,23.02
2022-08-04T00:20:43.622Z,23.01
2022-08-04T00:24:10.986Z,22.99
2022-08-04T00:27:14.202Z,22.99
2022-08-04T00:30:17.916Z,22.96
2022-08-04T00:33:21.932Z,22.94
2022-08-04T00:36:29.526Z,22.96
2022-08-04T00:39:34.832Z,22.93
2022-08-04T00:42:58.403Z,22.92
2022-08-04T00:46:47.134Z,22.92
2022-08-04T00:50:05.044Z,22.90
2022-08-04T00:53:18.427Z,22.88
2022-08-04T00:56:41.208Z,22.87
2022-08-04T00:59:59.191Z,22.86
2022-08-04T01:03:13.215Z,22.85
2022-08-04T01:06:25.966Z,22.85
2022-08-04T01:09:45.352Z,22.84
2022-08-04T01:13:07.744Z,22.83
2022-08-04T01:16:19.342Z,22.81
2022-08-04T01:19:54.316Z,22.80
2022-08-04T01:23:41.872Z,22.80
2022-08-04T01:26:58.261Z,22.79
2022-08-04T01:30:03.592Z,22.79
2022-08-04T01:33:12.102Z,22.79
2022-08-04T01:36:16.212Z,22.78
2022-08-04T01:39:41.486Z,22.77
2022-08-04T01:42:46.585Z,22.76
2022-08-04T01:45:58.015Z,22.76
2022-08-04T01:49:03.933Z,22.75
2022-08-04T01:52:11.481Z,22.75
2022-08-04T01:55:18.202Z,22.73
2022-08-04T01:58:23.043Z,22.72
2022-08-04T02:01:28.366Z,22.72
2022-08-04T02:04:32.238Z,22.71
2022-08-04T02:07:51.708Z,22.71
2022-08-04T02:11:07.497Z,22.70
2022-08-04T02:14:40.580Z,22.69
2022-08-04T02:17:53.825Z,22.69
2022-08-04T02:21:00.775Z,22.69
2022-08-04T02:24:09.303Z,22.68
2022-08-04T02:27:14.990Z,22.67
2022-08-04T02:30:20.402Z,22.67
2022-08-04T02:33:36.156Z,22.66
2022-08-04T02:36:43.038Z,22.59
2022-08-04T02:39:49.653Z,22.35
2022-08-04T02:42:58.568Z,22.17
2022-08-04T02:46:04.077Z,22.05
2022-08-04T02:49:24.736Z,21.93
2022-08-04T02:52:38.254Z,21.81
2022-08-04T02:55:51.092Z,21.72
2022-08-04T02:59:01.029Z,21.65
2022-08-04T03:02:04.946Z,21.58
2022-08-04T03:05:18.292Z,21.51
2022-08-04T03:09:03.341Z,21.46
2022-08-04T03:12:40.589Z,21.38
2022-08-04T03:16:02.330Z,21.36
2022-08-04T03:19:51.263Z,21.31
2022-08-04T03:23:22.792Z,21.26
2022-08-04T03:26:50.435Z,21.23
2022-08-04T03:30:07.328Z,21.18
2022-08-04T03:33:30.043Z,21.15
2022-08-04T03:37:02.408Z,21.11
2022-08-04T03:40:32.214Z,21.08
2022-08-04T03:44:06.103Z,21.03
2022-08-04T03:47:42.309Z,21.01
2022-08-04T03:51:35.683Z,20.99
2022-08-04T03:55:24.556Z,20.96
2022-08-04T03:59:12.968Z,20.93
2022-08-04T04:02:39.588Z,20.91
2022-08-04T04:06:25.586Z,20.87
2022-08-04T04:10:06.479Z,20.84
2022-08-04T04:13:33.987Z,20.84
2022-08-04T04:16:50.731Z,20.82
2022-08-04T04:20:05.529Z,20.81
2022-08-04T04:23:27.741Z,20.78
2022-08-04T04:26:56.128Z,20.76
2022-08-04T04:30:07.076Z,20.80
2022-08-04T04:33:34.672Z,20.76
2022-08-04T04:36:50.768Z,20.76
2022-08-04T04:40:10.021Z,20.73
2022-08-04T04:43:51.071Z,20.73
2022-08-04T04:47:07.274Z,20.74
2022-08-04T04:50:19.490Z,20.80
2022-08-04T04:53:31.058Z,20.81
2022-08-04T04:56:42.514Z,20.82
2022-08-04T04:59:52.332Z,20.80
2022-08-04T05:03:31.537Z,20.79
2022-08-04T05:07:06.007Z,20.79
2022-08-04T05:10:23.741Z,20.80
2022-08-04T05:14:36.356Z,20.77
2022-08-04T05:17:06.152Z,20.77
2022-08-04T05:20:13.740Z,20.77
2022-08-04T05:23:24.725Z,20.77
2022-08-04T05:26:33.915Z,20.79
2022-08-04T05:29:43.062Z,20.77
2022-08-04T05:32:53.945Z,20.79
2022-08-04T05:36:18.702Z,20.76
2022-08-04T05:39:34.269Z,20.81
2022-08-04T05:42:40.608Z,20.95
2022-08-04T05:45:48.331Z,20.87
2022-08-04T05:48:53.388Z,20.87
2022-08-04T05:52:02.045Z,20.88
2022-08-04T05:55:09.351Z,20.90
2022-08-04T05:58:14.846Z,20.93
2022-08-04T06:01:19.097Z,20.94
2022-08-04T06:04:24.213Z,20.95
2022-08-04T06:07:28.342Z,20.98
2022-08-04T06:10:37.655Z,21.04
2022-08-04T06:13:50.121Z,21.09
2022-08-04T06:16:57.081Z,21.11
2022-08-04T06:20:22.093Z,21.13
2022-08-04T06:23:31.120Z,21.25
2022-08-04T06:26:38.005Z,21.31
2022-08-04T06:29:51.486Z,21.32
2022-08-04T06:33:03.472Z,21.37
2022-08-04T06:36:12.262Z,21.43
2022-08-04T06:39:16.759Z,21.44
2022-08-04T06:42:24.100Z,21.48
2022-08-04T06:45:29.665Z,21.50
2022-08-04T06:48:33.943Z,21.65
2022-08-04T06:51:48.954Z,21.75
2022-08-04T06:54:55.690Z,21.72
2022-08-04T06:58:03.745Z,21.80
2022-08-04T07:01:08.778Z,21.85
2022-08-04T07:04:13.471Z,21.86
2022-08-04T07:07:19.814Z,21.90
2022-08-04T07:10:38.594Z,21.88
2022-08-04T07:13:45.508Z,21.91
2022-08-04T07:16:50.700Z,21.88
2022-08-04T07:19:54.487Z,21.89
2022-08-04T07:23:00.043Z,21.91
2022-08-04T07:26:12.315Z,21.92
2022-08-04T07:29:19.128Z,21.94
2022-08-04T07:32:23.910Z,21.96
2022-08-04T07:36:06.018Z,22.01
2022-08-04T07:38:53.583Z,22.06
2022-08-04T07:42:02.154Z,22.11
2022-08-04T07:45:10.761Z,22.17
2022-08-04T07:48:15.560Z,22.22
2022-08-04T07:51:19.717Z,22.27
2022-08-04T07:54:24.030Z,22.32
2022-08-04T07:57:40.424Z,22.36
2022-08-04T08:00:48.374Z,22.39
2022-08-04T08:03:53.975Z,22.42
2022-08-04T08:06:58.824Z,22.46
2022-08-04T08:10:02.731Z,22.48
2022-08-04T08:13:08.259Z,22.51
2022-08-04T08:16:14.084Z,22.56
2022-08-04T08:19:18.798Z,22.57
2022-08-04T08:22:22.635Z,22.61
2022-08-04T08:25:26.803Z,22.65
2022-08-04T08:28:30.648Z,22.69
2022-08-04T08:31:55.361Z,22.74
2022-08-04T08:34:59.811Z,22.76
2022-08-04T08:38:07.661Z,22.81
2022-08-04T08:41:36.511Z,22.82
2022-08-04T08:45:30.962Z,22.84
2022-08-04T08:49:10.240Z,22.86
2022-08-04T08:52:56.186Z,22.87
2022-08-04T08:56:13.228Z,22.89
2022-08-04T08:59:37.012Z,22.90
2022-08-04T09:03:27.036Z,22.93
2022-08-04T09:06:48.880Z,22.94
2022-08-04T09:10:07.263Z,22.95
2022-08-04T09:13:18.425Z,22.97
2022-08-04T09:16:30.223Z,22.98
2022-08-04T09:19:40.688Z,23.01
2022-08-04T09:22:51.795Z,23.03
2022-08-04T09:26:02.365Z,23.05
2022-08-04T09:29:12.111Z,23.06
2022-08-04T09:32:28.676Z,23.09
2022-08-04T09:35:43.361Z,23.11
2022-08-04T09:38:59.491Z,23.11
2022-08-04T09:42:13.619Z,23.12
2022-08-04T09:45:39.177Z,23.15
2022-08-04T09:48:56.234Z,23.17
2022-08-04T09:52:08.754Z,23.08
2022-08-04T09:55:24.095Z,23.19
2022-08-04T09:58:41.627Z,23.18
2022-08-04T10:01:47.536Z,23.20
2022-08-04T10:05:05.146Z,23.22
2022-08-04T10:08:24.075Z,23.23
2022-08-04T10:11:55.567Z,23.26
2022-08-04T10:15:11.656Z,23.28
2022-08-04T10:18:29.939Z,23.31
2022-08-04T10:21:59.246Z,23.33
2022-08-04T10:25:37.338Z,23.34
2022-08-04T10:28:45.907Z,23.35
2022-08-04T10:31:58.444Z,23.36
2022-08-04T10:35:10.044Z,23.36
2022-08-04T10:38:26.773Z,23.38
2022-08-04T10:41:39.481Z,23.40
2022-08-04T10:45:07.268Z,23.42
2022-08-04T10:48:34.089Z,23.43
2022-08-04T10:51:57.452Z,23.44
2022-08-04T10:55:09.702Z,23.45
2022-08-04T10:58:19.881Z,23.45
2022-08-04T11:02:02.111Z,23.44
2022-08-04T11:05:08.905Z,23.42
2022-08-04T11:08:20.739Z,23.42
2022-08-04T11:12:00.801Z,23.41
2022-08-04T11:15:08.060Z,23.42
2022-08-04T11:18:20.242Z,23.43
2022-08-04T11:21:29.445Z,23.47
2022-08-04T11:24:42.067Z,23.48
2022-08-04T11:27:56.755Z,23.49
2022-08-04T11:31:05.755Z,23.53
2022-08-04T11:34:20.817Z,23.56
2022-08-04T11:37:29.742Z,23.60
2022-08-04T11:40:39.287Z,23.61
2022-08-04T11:44:01.608Z,23.60
2022-08-04T11:47:17.648Z,23.56
2022-08-04T11:50:30.788Z,23.53
2022-08-04T11:53:38.359Z,23.53
2022-08-04T11:56:42.322Z,23.54
2022-08-04T11:59:49.088Z,23.57
2022-08-04T12:03:09.987Z,23.58
2022-08-04T12:06:21.182Z,23.53
2022-08-04T12:09:33.335Z,23.59
2022-08-04T12:12:57.330Z,23.63
2022-08-04T12:16:11.760Z,23.65
2022-08-04T12:19:23.015Z,23.67
2022-08-04T12:22:33.544Z,23.69
2022-08-04T12:25:45.150Z,23.70
2022-08-04T12:29:09.493Z,23.68
2022-08-04T12:32:25.263Z,23.65
2022-08-04T12:35:35.120Z,23.63
2022-08-04T12:38:53.802Z,23.58
2022-08-04T12:42:05.108Z,23.57
2022-08-04T12:45:11.215Z,23.53
2022-08-04T12:48:20.582Z,23.52
2022-08-04T12:52:06.179Z,23.52
2022-08-04T12:54:56.691Z,23.50
2022-08-04T12:58:03.967Z,23.48
2022-08-04T13:02:09.124Z,23.46
2022-08-04T13:04:38.296Z,23.44
2022-08-04T13:07:50.850Z,23.43
2022-08-04T13:10:59.749Z,23.42
2022-08-04T13:14:25.599Z,23.41
2022-08-04T13:17:46.212Z,23.40
2022-08-04T13:20:52.993Z,23.38
2022-08-04T13:24:20.253Z,23.36
2022-08-04T13:27:28.412Z,23.35
2022-08-04T13:30:49.248Z,23.36
2022-08-04T13:33:55.394Z,23.34
2022-08-04T13:37:00.224Z,23.33
2022-08-04T13:40:07.472Z,23.32
2022-08-04T13:44:16.318Z,23.35
2022-08-04T13:46:53.373Z,23.34
2022-08-04T13:50:13.557Z,23.33
2022-08-04T13:53:22.067Z,23.34
2022-08-04T13:56:31.684Z,23.33
2022-08-04T13:59:39.760Z,23.35
2022-08-04T14:02:47.093Z,23.35
2022-08-04T14:06:16.853Z,23.37
2022-08-04T14:09:21.848Z,23.37
2022-08-04T14:12:47.314Z,23.37
2022-08-04T14:16:02.442Z,23.36
2022-08-04T14:19:08.184Z,23.36
2022-08-04T14:22:30.197Z,23.35
2022-08-04T14:25:35.551Z,23.35
2022-08-04T14:29:09.573Z,23.35
2022-08-04T14:32:12.466Z,23.37
2022-08-04T14:35:17.842Z,23.38
2022-08-04T14:38:22.087Z,23.38
2022-08-04T14:41:28.968Z,23.39
2022-08-04T14:44:32.814Z,23.39
2022-08-04T14:47:52.295Z,23.39
2022-08-04T14:50:57.169Z,23.39
2022-08-04T14:54:03.970Z,23.40
2022-08-04T14:57:11.740Z,23.40
2022-08-04T15:00:26.417Z,23.41
2022-08-04T15:03:33.239Z,23.41
2022-08-04T15:06:37.164Z,23.42
2022-08-04T15:09:43.367Z,23.41
2022-08-04T15:12:47.930Z,23.41
2022-08-04T15:16:07.278Z,23.41
2022-08-04T15:19:14.963Z,23.41
2022-08-04T15:22:18.838Z,23.41
2022-08-04T15:25:22.813Z,23.41
2022-08-04T15:28:29.349Z,23.42
2022-08-04T15:32:07.163Z,23.42
2022-08-04T15:35:07.276Z,23.43
2022-08-04T15:38:17.456Z,23.43
2022-08-04T15:41:30.778Z,23.43
2022-08-04T15:46:33.237Z,23.42
2022-08-04T15:48:48.667Z,23.41
2022-08-04T15:52:01.335Z,23.42
2022-08-04T15:55:40.891Z,23.43
2022-08-04T15:58:51.173Z,23.44
2022-08-04T16:02:37.765Z,23.46
2022-08-04T16:05:42.215Z,23.45
2022-08-04T16:09:01.891Z,23.46
2022-08-04T16:12:09.325Z,23.46
2022-08-04T16:15:44.415Z,23.47
2022-08-04T16:18:48.484Z,23.48
2022-08-04T16:21:53.939Z,23.48
2022-08-04T16:24:59.200Z,23.49
2022-08-04T16:28:03.164Z,23.49
2022-08-04T16:31:08.527Z,23.49
2022-08-04T16:34:49.989Z,23.50
2022-08-04T16:37:38.260Z,23.51
2022-08-04T16:40:47.377Z,23.52
2022-08-04T16:43:51.189Z,23.51
2022-08-04T16:47:08.898Z,23.52
2022-08-04T16:50:20.151Z,23.53
2022-08-04T16:53:52.213Z,23.54
2022-08-04T16:56:51.017Z,23.54
2022-08-04T16:59:54.898Z,23.56
2022-08-04T17:02:59.013Z,23.55
2022-08-04T17:06:10.888Z,23.56
2022-08-04T17:09:16.399Z,23.56
2022-08-04T17:12:21.771Z,23.57
2022-08-04T17:15:27.102Z,23.56
2022-08-04T17:18:34.509Z,23.55
2022-08-04T17:21:40.183Z,23.56
2022-08-04T17:24:43.884Z,23.55
2022-08-04T17:28:19.433Z,23.56
2022-08-04T17:31:28.853Z,23.56
2022-08-04T17:34:32.867Z,23.56
2022-08-04T17:37:39.370Z,23.55
2022-08-04T17:40:58.998Z,23.56
2022-08-04T17:44:06.898Z,23.58
2022-08-04T17:47:18.358Z,23.57
2022-08-04T17:50:26.714Z,23.56
2022-08-04T17:54:02.882Z,23.57
2022-08-04T17:56:59.478Z,23.57
2022-08-04T18:00:05.781Z,23.58
2022-08-04T18:03:24.641Z,23.58
2022-08-04T18:06:33.779Z,23.58
2022-08-04T18:10:02.227Z,23.60
2022-08-04T18:13:14.219Z,23.60
2022-08-04T18:16:22.895Z,23.60
2022-08-04T18:19:31.299Z,23.60
2022-08-04T18:22:35.725Z,23.58
2022-08-04T18:25:51.241Z,23.59
2022-08-04T18:28:56.023Z,23.59
2022-08-04T18:32:01.253Z,23.60
2022-08-04T18:35:07.492Z,23.58
2022-08-04T18:38:23.316Z,23.59
2022-08-04T18:41:28.313Z,23.59
2022-08-04T18:44:51.807Z,23.60
2022-08-04T18:47:59.061Z,23.59
2022-08-04T18:51:23.087Z,23.59
2022-08-04T18:54:27.221Z,23.58
2022-08-04T18:57:59.358Z,23.59
2022-08-04T19:01:00.529Z,23.59
2022-08-04T19:04:32.273Z,23.60
2022-08-04T19:07:31.415Z,23.58
2022-08-04T19:10:35.710Z,23.59
2022-08-04T19:13:39.636Z,23.59
2022-08-04T19:16:46.123Z,23.59
2022-08-04T19:19:52.560Z,23.59
2022-08-04T19:24:11.199Z,23.60
2022-08-04T19:26:28.243Z,23.59
2022-08-04T19:29:37.740Z,23.59
2022-08-04T19:32:48.214Z,23.59
2022-08-04T19:35:53.841Z,23.60
2022-08-04T19:38:58.697Z,23.58
2022-08-04T19:42:06.246Z,23.58
2022-08-04T19:45:15.936Z,23.58
2022-08-04T19:48:20.398Z,23.58
2022-08-04T19:51:27.811Z,23.58
2022-08-04T19:54:32.301Z,23.58
2022-08-04T19:57:36.853Z,23.59
2022-08-04T20:00:44.752Z,23.58
2022-08-04T20:04:09.086Z,23.58
2022-08-04T20:07:15.845Z,23.58
2022-08-04T20:10:23.826Z,23.57
2022-08-04T20:13:37.458Z,23.58
2022-08-04T20:16:42.462Z,23.57
2022-08-04T20:19:51.517Z,23.57
2022-08-04T20:23:11.361Z,23.57
2022-08-04T20:26:15.224Z,23.57
2022-08-04T20:29:37.060Z,23.58
2022-08-04T20:32:43.480Z,23.57
2022-08-04T20:36:05.264Z,23.57
2022-08-04T20:39:11.981Z,23.57
2022-08-04T20:42:19.584Z,23.56
2022-08-04T20:48:56.244Z,23.57
2022-08-04T20:52:06.580Z,23.57
2022-08-04T20:55:18.805Z,23.57
2022-08-04T20:58:27.461Z,23.56
2022-08-04T21:01:31.968Z,23.56
2022-08-04T21:04:45.297Z,23.57
2022-08-04T21:07:52.329Z,23.56
2022-08-04T21:10:57.997Z,23.58
2022-08-04T21:14:05.656Z,23.56
2022-08-04T21:17:09.846Z,23.56
2022-08-04T21:20:27.412Z,23.57
2022-08-04T21:23:34.115Z,23.57
2022-08-04T21:26:39.740Z,23.57
2022-08-04T21:29:46.729Z,23.56
2022-08-04T21:32:53.085Z,23.55
2022-08-04T21:35:58.776Z,23.56
2022-08-04T21:39:02.887Z,23.55
2022-08-04T21:42:29.848Z,23.56
2022-08-04T21:45:36.143Z,23.56
2022-08-04T21:48:42.488Z,23.53
2022-08-04T21:51:56.953Z,23.52
2022-08-04T21:55:03.405Z,23.52
2022-08-04T21:58:08.817Z,23.52
2022-08-04T22:01:13.853Z,23.53
2022-08-04T22:04:37.730Z,23.53
2022-08-04T22:07:50.312Z,23.51
2022-08-04T22:10:55.885Z,23.52
2022-08-04T22:14:11.127Z,23.52
2022-08-04T22:17:18.430Z,23.50
2022-08-04T22:20:27.257Z,23.51
2022-08-04T22:23:45.963Z,23.50
2022-08-04T22:26:51.124Z,23.51
2022-08-04T22:29:56.245Z,23.49
2022-08-04T22:33:00.552Z,23.49
2022-08-04T22:36:04.657Z,23.49
2022-08-04T22:39:11.624Z,23.49
2022-08-04T22:42:17.153Z,23.47
2022-08-04T22:45:28.766Z,23.48
2022-08-04T22:48:33.309Z,23.46
2022-08-04T22:51:37.132Z,23.45
2022-08-04T22:54:41.924Z,23.46
2022-08-04T22:58:05.499Z,23.46
2022-08-04T23:01:11.611Z,23.46
2022-08-04T23:04:18.719Z,23.46
2022-08-04T23:07:23.784Z,23.45
2022-08-04T23:10:28.011Z,23.45
2022-08-04T23:13:32.962Z,23.45
2022-08-04T23:16:40.743Z,23.45
2022-08-04T23:19:46.145Z,23.45
2022-08-04T23:23:14.889Z,23.47
2022-08-04T23:26:19.184Z,23.48
2022-08-04T23:29:53.296Z,23.47
2022-08-04T23:32:56.520Z,23.47
2022-08-04T23:36:01.429Z,23.47
2022-08-04T23:39:06.321Z,23.46
2022-08-04T23:42:10.475Z,23.44
2022-08-04T23:46:07.866Z,23.44
2022-08-04T23:48:44.329Z,23.44
2022-08-04T23:51:49.656Z,23.44
2022-08-04T23:54:53.659Z,23.43
2022-08-04T23:58:06.558Z,23.42
